createdAt,value
2017-08-20T00:00:13.878Z,1000.81
2017-08-20T00:01:24.167Z,1000.8
2017-08-20T00:02:34.451Z,1000.79
2017-08-20T00:03:46.385Z,1000.77
2017-08-20T00:06:31.970Z,1000.77
2017-08-20T00:07:41.962Z,1000.84
2017-08-20T00:08:52.257Z,1000.82
2017-08-20T00:10:02.548Z,1000.79
2017-08-20T00:11:12.521Z,1000.8
2017-08-20T00:12:22.796Z,1000.76
2017-08-20T00:13:33.089Z,1000.83
2017-08-20T00:14:43.376Z,1000.78
2017-08-20T00:15:53.648Z,1000.79
2017-08-20T00:17:03.997Z,1000.79
2017-08-20T00:18:16.733Z,1000.77
2017-08-20T00:19:27.023Z,1000.72
2017-08-20T00:20:37.347Z,1000.72
2017-08-20T00:21:47.648Z,1000.71
2017-08-20T00:22:57.632Z,1000.69
2017-08-20T00:24:07.924Z,1000.76
2017-08-20T00:25:18.202Z,1000.75
2017-08-20T00:26:28.489Z,1000.78
2017-08-20T00:27:38.789Z,1000.8
2017-08-20T00:28:50.300Z,1000.83
2017-08-20T00:29:59.955Z,1000.81
2017-08-20T00:31:10.239Z,1000.83
2017-08-20T00:32:20.543Z,1000.76
2017-08-20T00:33:30.508Z,1000.79
2017-08-20T00:34:40.233Z,1000.73
2017-08-20T00:35:50.224Z,1000.74
2017-08-20T00:36:59.899Z,1000.71
2017-08-20T00:38:10.220Z,1000.79
2017-08-20T00:39:20.508Z,1000.75
2017-08-20T00:40:30.830Z,1000.77
2017-08-20T00:41:40.502Z,1000.76
2017-08-20T00:42:50.775Z,1000.69
2017-08-20T00:44:01.059Z,1000.71
2017-08-20T00:45:10.732Z,1000.7
2017-08-20T00:46:21.029Z,1000.72
2017-08-20T00:47:31.311Z,1000.71
2017-08-20T00:48:41.584Z,1000.65
2017-08-20T00:49:51.867Z,1000.68
2017-08-20T00:51:02.153Z,1000.66
2017-08-20T00:52:13.513Z,1000.65
2017-08-20T00:53:23.186Z,1000.69
2017-08-20T00:54:32.860Z,1000.74
2017-08-20T00:55:43.130Z,1000.76
2017-08-20T00:56:53.420Z,1000.78
2017-08-20T00:58:03.778Z,1000.72
2017-08-20T00:59:13.769Z,1000.66
2017-08-20T01:00:24.047Z,1000.64
2017-08-20T01:01:34.340Z,1000.68
2017-08-20T01:02:44.621Z,1000.67
2017-08-20T01:03:55.739Z,1000.61
2017-08-20T01:05:06.627Z,1000.66
2017-08-20T01:06:16.595Z,1000.61
2017-08-20T01:07:26.912Z,1000.65
2017-08-20T01:08:37.214Z,1000.61
2017-08-20T01:09:47.556Z,1000.59
2017-08-20T01:10:57.844Z,1000.54
2017-08-20T01:12:08.137Z,1000.6
2017-08-20T01:13:18.107Z,1000.6
2017-08-20T01:14:28.404Z,1000.58
2017-08-20T01:15:38.399Z,1000.59
2017-08-20T01:16:48.416Z,1000.6
2017-08-20T01:17:58.713Z,1000.59
2017-08-20T01:19:10.735Z,1000.57
2017-08-20T01:20:22.525Z,1000.6
2017-08-20T01:21:32.259Z,1000.59
2017-08-20T01:22:42.568Z,1000.61
2017-08-20T01:23:52.916Z,1000.66
2017-08-20T01:25:03.203Z,1000.67
2017-08-20T01:26:13.524Z,1000.63
2017-08-20T01:27:23.810Z,1000.63
2017-08-20T01:28:34.089Z,1000.58
2017-08-20T01:29:44.364Z,1000.56
2017-08-20T01:30:54.341Z,1000.59
2017-08-20T01:32:04.305Z,1000.56
2017-08-20T01:33:14.635Z,1000.52
2017-08-20T01:34:24.595Z,1000.44
2017-08-20T01:35:34.557Z,1000.47
2017-08-20T01:36:44.515Z,1000.43
2017-08-20T01:37:54.810Z,1000.47
2017-08-20T01:39:05.094Z,1000.43
2017-08-20T01:40:15.363Z,1000.4
2017-08-20T01:41:25.638Z,1000.45
2017-08-20T01:42:35.920Z,1000.42
2017-08-20T01:43:46.211Z,1000.45
2017-08-20T01:44:56.193Z,1000.4
2017-08-20T01:46:06.180Z,1000.47
2017-08-20T01:47:16.163Z,1000.47
2017-08-20T01:48:26.440Z,1000.47
2017-08-20T01:49:39.276Z,1000.5
2017-08-20T01:50:49.613Z,1000.48
2017-08-20T01:52:01.038Z,1000.51
2017-08-20T01:53:10.716Z,1000.51
2017-08-20T01:54:20.989Z,1000.52
2017-08-20T01:55:31.306Z,1000.59
2017-08-20T01:56:41.571Z,1000.51
2017-08-20T01:57:51.843Z,1000.55
2017-08-20T01:59:01.808Z,1000.6
2017-08-20T02:00:12.086Z,1000.57
2017-08-20T02:01:22.363Z,1000.59
2017-08-20T02:02:32.386Z,1000.61
2017-08-20T02:03:42.670Z,1000.54
2017-08-20T02:04:54.244Z,1000.54
2017-08-20T02:06:04.522Z,1000.61
2017-08-20T02:07:14.796Z,1000.62
2017-08-20T02:08:24.149Z,1000.68
2017-08-20T02:09:33.810Z,1000.61
2017-08-20T02:10:44.088Z,1000.57
2017-08-20T02:11:59.523Z,1000.58
2017-08-20T02:13:09.170Z,1000.56
2017-08-20T02:14:19.130Z,1000.48
2017-08-20T02:15:28.790Z,1000.55
2017-08-20T02:16:39.079Z,1000.56
2017-08-20T02:17:49.360Z,1000.63
2017-08-20T02:18:59.580Z,1000.62
2017-08-20T02:20:09.873Z,1000.6
2017-08-20T02:21:20.149Z,1000.59
2017-08-20T02:22:30.419Z,1000.59
2017-08-20T02:23:40.690Z,1000.71
2017-08-20T02:24:50.956Z,1000.65
2017-08-20T02:26:01.284Z,1000.64
2017-08-20T02:27:10.944Z,1000.64
2017-08-20T02:28:21.235Z,1000.57
2017-08-20T02:29:31.504Z,1000.6
2017-08-20T02:30:41.778Z,1000.57
2017-08-20T02:31:52.065Z,1000.53
2017-08-20T02:33:02.332Z,1000.5
2017-08-20T02:34:12.607Z,1000.51
2017-08-20T02:35:22.909Z,1000.46
2017-08-20T02:36:33.231Z,1000.43
2017-08-20T02:37:43.261Z,1000.41
2017-08-20T02:38:55.886Z,1000.38
2017-08-20T02:40:05.843Z,1000.42
2017-08-20T02:41:16.128Z,1000.38
2017-08-20T02:42:26.410Z,1000.38
2017-08-20T02:43:37.604Z,1000.38
2017-08-20T02:44:47.267Z,1000.41
2017-08-20T02:45:57.232Z,1000.42
2017-08-20T02:47:07.523Z,1000.49
2017-08-20T02:48:17.805Z,1000.43
2017-08-20T02:49:27.839Z,1000.4
2017-08-20T02:50:38.105Z,1000.38
2017-08-20T02:51:47.761Z,1000.35
2017-08-20T02:52:57.734Z,1000.29
2017-08-20T02:54:08.024Z,1000.36
2017-08-20T02:55:19.053Z,1000.38
2017-08-20T02:56:29.320Z,1000.37
2017-08-20T02:57:39.603Z,1000.37
2017-08-20T02:58:49.875Z,1000.38
2017-08-20T02:59:59.859Z,1000.38
2017-08-20T03:01:10.130Z,1000.4
2017-08-20T03:33:12.293Z,1000.36
2017-08-20T03:34:22.570Z,1000.41
2017-08-20T03:35:32.535Z,1000.38
2017-08-20T03:36:42.803Z,1000.4
2017-08-20T03:37:52.784Z,1000.42
2017-08-20T03:39:04.346Z,1000.44
2017-08-20T03:40:14.313Z,1000.44
2017-08-20T03:41:24.590Z,1000.38
2017-08-20T03:42:36.403Z,1000.35
2017-08-20T03:43:46.703Z,1000.37
2017-08-20T03:44:56.984Z,1000.39
2017-08-20T03:46:06.936Z,1000.37
2017-08-20T03:47:17.233Z,1000.34
2017-08-20T03:48:27.188Z,1000.34
2017-08-20T03:49:37.177Z,1000.32
2017-08-20T03:50:47.497Z,1000.34
2017-08-20T03:51:57.775Z,1000.29
2017-08-20T03:53:08.050Z,1000.31
2017-08-20T03:54:18.335Z,1000.32
2017-08-20T03:55:28.327Z,1000.39
2017-08-20T03:56:38.654Z,1000.36
2017-08-20T03:57:48.925Z,1000.48
2017-08-20T03:58:58.615Z,1000.48
2017-08-20T04:00:08.894Z,1000.48
2017-08-20T04:01:19.170Z,1000.55
2017-08-20T04:02:29.437Z,1000.52
2017-08-20T04:03:40.255Z,1000.52
2017-08-20T04:04:50.531Z,1000.5
2017-08-20T04:06:00.799Z,1000.52
2017-08-20T04:07:11.088Z,1000.52
2017-08-20T04:08:21.363Z,1000.48
2017-08-20T04:09:31.341Z,1000.48
2017-08-20T04:10:41.324Z,1000.5
2017-08-20T04:11:51.594Z,1000.5
2017-08-20T04:13:01.883Z,1000.46
2017-08-20T04:14:11.903Z,1000.47
2017-08-20T04:15:22.231Z,1000.48
2017-08-20T04:16:32.200Z,1000.51
2017-08-20T04:17:42.495Z,1000.49
2017-08-20T04:18:52.776Z,1000.5
2017-08-20T04:20:03.059Z,1000.53
2017-08-20T04:21:13.037Z,1000.55
2017-08-20T04:22:24.393Z,1000.54
2017-08-20T04:23:34.355Z,1000.51
2017-08-20T04:24:44.656Z,1000.51
2017-08-20T04:25:54.662Z,1000.53
2017-08-20T04:27:04.919Z,1000.52
2017-08-20T04:28:15.201Z,1000.51
2017-08-20T04:29:25.494Z,1000.54
2017-08-20T04:30:35.460Z,1000.53
2017-08-20T04:31:45.737Z,1000.53
2017-08-20T04:32:56.018Z,1000.47
2017-08-20T04:34:06.328Z,1000.47
2017-08-20T04:35:16.604Z,1000.42
2017-08-20T04:36:26.892Z,1000.44
2017-08-20T04:37:37.224Z,1000.46
2017-08-20T04:38:49.354Z,1000.45
2017-08-20T04:39:59.639Z,1000.47
2017-08-20T04:41:09.612Z,1000.49
2017-08-20T04:42:19.592Z,1000.44
2017-08-20T04:43:29.915Z,1000.44
2017-08-20T04:44:39.875Z,1000.39
2017-08-20T04:45:49.851Z,1000.36
2017-08-20T04:46:59.858Z,1000.37
2017-08-20T04:48:09.853Z,1000.32
2017-08-20T04:49:19.887Z,1000.32
2017-08-20T04:50:30.190Z,1000.35
2017-08-20T04:51:40.187Z,1000.36
2017-08-20T04:52:50.158Z,1000.35
2017-08-20T04:54:00.440Z,1000.35
2017-08-20T04:55:10.760Z,1000.36
2017-08-20T04:56:21.028Z,1000.42
2017-08-20T04:57:31.286Z,1000.43
2017-08-20T04:58:41.579Z,1000.51
2017-08-20T04:59:51.870Z,1000.56
2017-08-20T05:01:02.182Z,1000.62
2017-08-20T05:02:14.618Z,1000.66
2017-08-20T05:03:25.983Z,1000.69
2017-08-20T05:04:35.961Z,1000.62
2017-08-20T05:05:46.235Z,1000.67
2017-08-20T05:06:56.505Z,1000.6
2017-08-20T05:08:06.458Z,1000.55
2017-08-20T05:09:16.729Z,1000.58
2017-08-20T05:10:27.013Z,1000.62
2017-08-20T05:11:37.305Z,1000.59
2017-08-20T05:12:47.316Z,1000.57
2017-08-20T05:13:57.600Z,1000.59
2017-08-20T05:15:07.581Z,1000.58
2017-08-20T05:16:17.873Z,1000.65
2017-08-20T05:17:28.161Z,1000.59
2017-08-20T05:18:38.191Z,1000.61
2017-08-20T05:19:48.153Z,1000.58
2017-08-20T05:20:58.423Z,1000.5
2017-08-20T05:22:08.709Z,1000.49
2017-08-20T05:23:18.969Z,1000.47
2017-08-20T05:24:29.290Z,1000.47
2017-08-20T05:25:39.553Z,1000.46
2017-08-20T05:26:49.562Z,1000.53
2017-08-20T05:27:59.828Z,1000.52
2017-08-20T05:29:10.105Z,1000.55
2017-08-20T05:30:20.468Z,1000.55
2017-08-20T05:31:30.754Z,1000.57
2017-08-20T05:32:41.032Z,1000.59
2017-08-20T05:33:51.015Z,1000.62
2017-08-20T05:35:01.289Z,1000.64
2017-08-20T05:36:11.643Z,1000.64
2017-08-20T05:37:21.935Z,1000.65
2017-08-20T05:38:32.214Z,1000.63
2017-08-20T05:39:44.653Z,1000.62
2017-08-20T05:40:54.929Z,1000.62
2017-08-20T05:42:05.264Z,1000.62
2017-08-20T05:43:15.565Z,1000.65
2017-08-20T05:44:25.861Z,1000.65
2017-08-20T05:45:35.850Z,1000.65
2017-08-20T05:46:46.143Z,1000.65
2017-08-20T05:47:55.855Z,1000.6
2017-08-20T05:49:06.127Z,1000.61
2017-08-20T05:50:15.789Z,1000.71
2017-08-20T05:51:29.481Z,1000.7
2017-08-20T05:52:39.453Z,1000.72
2017-08-20T05:53:49.433Z,1000.75
2017-08-20T05:54:59.110Z,1000.73
2017-08-20T05:56:09.402Z,1000.74
2017-08-20T05:57:19.716Z,1000.76
2017-08-20T05:58:30.711Z,1000.77
2017-08-20T05:59:41.040Z,1000.74
2017-08-20T06:00:51.026Z,1000.8
2017-08-20T06:02:01.306Z,1000.79
2017-08-20T06:03:11.580Z,1000.8
2017-08-20T06:04:21.856Z,1000.79
2017-08-20T06:05:32.138Z,1000.79
2017-08-20T06:06:42.398Z,1000.75
2017-08-20T06:07:54.667Z,1000.76
2017-08-20T06:09:04.327Z,1000.73
2017-08-20T06:10:14.631Z,1000.74
2017-08-20T06:11:24.917Z,1000.74
2017-08-20T06:12:34.887Z,1000.76
2017-08-20T06:13:45.166Z,1000.72
2017-08-20T06:14:55.437Z,1000.74
2017-08-20T06:16:05.417Z,1000.75
2017-08-20T06:17:15.449Z,1000.87
2017-08-20T06:18:25.717Z,1000.82
2017-08-20T06:19:36.007Z,1000.85
2017-08-20T06:20:46.292Z,1000.91
2017-08-20T06:21:56.268Z,1000.95
2017-08-20T06:23:06.293Z,1000.88
2017-08-20T06:24:16.583Z,1000.95
2017-08-20T06:25:26.863Z,1000.96
2017-08-20T06:26:37.150Z,1000.99
2017-08-20T06:27:47.130Z,1001.03
2017-08-20T06:28:57.436Z,1001.07
2017-08-20T06:30:07.414Z,1001.09
2017-08-20T06:31:17.394Z,1001.04
2017-08-20T06:32:27.669Z,1001.07
2017-08-20T06:33:37.976Z,1001.01
2017-08-20T06:34:47.986Z,1001.07
2017-08-20T06:35:57.659Z,1001.07
2017-08-20T06:37:07.934Z,1001
2017-08-20T06:38:18.207Z,1001.05
2017-08-20T06:39:28.503Z,1001.06
2017-08-20T06:40:38.809Z,1001.08
2017-08-20T06:41:48.788Z,1001.02
2017-08-20T06:42:59.564Z,1001
2017-08-20T06:44:09.855Z,1001.05
2017-08-20T06:45:19.499Z,1001.09
2017-08-20T06:46:29.785Z,1001.07
2017-08-20T06:47:39.763Z,1001.06
2017-08-20T06:48:50.055Z,1001.07
2017-08-20T06:50:00.365Z,1001.05
2017-08-20T06:51:10.351Z,1001.13
2017-08-20T06:52:20.688Z,1001.12
2017-08-20T06:53:30.985Z,1001.09
2017-08-20T06:54:41.273Z,1001.15
2017-08-20T06:55:51.603Z,1001.2
2017-08-20T06:57:03.603Z,1001.17
2017-08-20T06:58:13.879Z,1001.19
2017-08-20T06:59:24.155Z,1001.22
2017-08-20T07:00:34.438Z,1001.3
2017-08-20T07:01:44.718Z,1001.28
2017-08-20T07:02:54.686Z,1001.33
2017-08-20T07:04:05.027Z,1001.33
2017-08-20T07:05:15.010Z,1001.34
2017-08-20T07:06:25.295Z,1001.22
2017-08-20T07:07:35.582Z,1001.33
2017-08-20T07:08:45.261Z,1001.32
2017-08-20T07:09:55.543Z,1001.36
2017-08-20T07:11:05.538Z,1001.32
2017-08-20T07:12:15.527Z,1001.37
2017-08-20T07:13:25.795Z,1001.38
2017-08-20T07:14:35.752Z,1001.33
2017-08-20T07:15:45.774Z,1001.44
2017-08-20T07:16:57.853Z,1001.44
2017-08-20T07:18:08.130Z,1001.39
2017-08-20T07:19:18.124Z,1001.48
2017-08-20T07:20:28.402Z,1001.46
2017-08-20T07:21:38.684Z,1001.46
2017-08-20T07:22:48.951Z,1001.43
2017-08-20T07:23:58.916Z,1001.57
2017-08-20T07:25:08.639Z,1001.52
2017-08-20T07:26:18.623Z,1001.48
2017-08-20T07:27:28.972Z,1001.51
2017-08-20T07:28:38.648Z,1001.51
2017-08-20T07:29:48.955Z,1001.52
2017-08-20T07:30:59.236Z,1001.54
2017-08-20T07:32:09.517Z,1001.52
2017-08-20T07:33:19.553Z,1001.56
2017-08-20T07:34:29.852Z,1001.6
2017-08-20T07:35:40.125Z,1001.64
2017-08-20T07:36:50.402Z,1001.63
2017-08-20T07:38:00.406Z,1001.61
2017-08-20T07:39:10.735Z,1001.63
2017-08-20T07:40:21.025Z,1001.66
2017-08-20T07:41:31.017Z,1001.67
2017-08-20T07:42:41.319Z,1001.69
2017-08-20T07:43:51.595Z,1001.75
2017-08-20T07:45:01.943Z,1001.77
2017-08-20T07:46:12.214Z,1001.82
2017-08-20T07:47:22.502Z,1001.81
2017-08-20T07:48:32.794Z,1001.81
2017-08-20T07:49:43.070Z,1001.82
2017-08-20T07:50:53.614Z,1001.81
2017-08-20T07:52:03.283Z,1001.83
2017-08-20T07:53:13.579Z,1001.8
2017-08-20T07:54:23.847Z,1001.86
2017-08-20T07:55:33.823Z,1001.88
2017-08-20T07:56:43.573Z,1001.78
2017-08-20T07:57:53.844Z,1001.88
2017-08-20T07:59:04.124Z,1001.85
2017-08-20T08:00:14.402Z,1001.88
2017-08-20T08:01:24.683Z,1001.91
2017-08-20T08:02:35.029Z,1001.9
2017-08-20T08:03:46.308Z,1001.94
2017-08-20T08:04:56.607Z,1001.91
2017-08-20T08:06:06.583Z,1001.98
2017-08-20T08:07:16.873Z,1001.92
2017-08-20T08:08:26.878Z,1001.87
2017-08-20T08:09:36.878Z,1001.94
2017-08-20T08:10:47.147Z,1001.9
2017-08-20T08:11:57.433Z,1001.93
2017-08-20T08:13:07.407Z,1001.88
2017-08-20T08:14:17.391Z,1001.96
2017-08-20T08:15:27.662Z,1001.95
2017-08-20T08:16:37.967Z,1001.93
2017-08-20T08:17:48.270Z,1002
2017-08-20T08:18:58.629Z,1001.98
2017-08-20T08:20:09.031Z,1001.98
2017-08-20T08:21:19.392Z,1001.98
2017-08-20T08:22:29.425Z,1002
2017-08-20T08:23:42.047Z,1001.99
2017-08-20T08:24:53.587Z,1002.09
2017-08-20T08:26:03.975Z,1002.04
2017-08-20T08:27:14.039Z,1002.06
2017-08-20T08:28:24.439Z,1002.09
2017-08-20T08:29:34.481Z,1002.03
2017-08-20T08:30:44.813Z,1002.04
2017-08-20T08:31:54.901Z,1002.04
2017-08-20T08:33:05.262Z,1002.02
2017-08-20T08:34:15.632Z,1002.09
2017-08-20T08:35:25.984Z,1002.02
2017-08-20T08:36:36.386Z,1002.09
2017-08-20T08:37:46.792Z,1002.15
2017-08-20T08:38:56.830Z,1002.15
2017-08-20T08:40:06.873Z,1002.2
2017-08-20T08:41:18.058Z,1002.17
2017-08-20T08:42:28.398Z,1002.27
2017-08-20T08:43:38.719Z,1002.23
2017-08-20T08:44:49.053Z,1002.26
2017-08-20T08:45:59.101Z,1002.27
2017-08-20T08:47:09.461Z,1002.29
2017-08-20T08:48:19.812Z,1002.27
2017-08-20T08:49:29.580Z,1002.27
2017-08-20T08:50:39.616Z,1002.24
2017-08-20T08:51:50.002Z,1002.25
2017-08-20T08:53:00.342Z,1002.23
2017-08-20T08:54:10.398Z,1002.18
2017-08-20T08:55:20.790Z,1002.22
2017-08-20T08:56:32.282Z,1002.23
2017-08-20T08:57:42.626Z,1002.2
2017-08-20T08:58:52.970Z,1002.23
2017-08-20T09:00:03.307Z,1002.25
2017-08-20T09:01:13.726Z,1002.16
2017-08-20T09:02:24.084Z,1002.23
2017-08-20T09:03:34.430Z,1002.21
2017-08-20T09:04:44.482Z,1002.17
2017-08-20T09:05:54.515Z,1002.22
2017-08-20T09:07:07.113Z,1002.17
2017-08-20T09:08:17.158Z,1002.23
2017-08-20T09:09:27.198Z,1002.26
2017-08-20T09:10:37.338Z,1002.21
2017-08-20T09:11:49.610Z,1002.23
2017-08-20T09:13:00.036Z,1002.22
2017-08-20T09:14:10.171Z,1002.23
2017-08-20T09:15:20.541Z,1002.31
2017-08-20T09:16:30.885Z,1002.24
2017-08-20T09:17:41.234Z,1002.32
2017-08-20T09:18:51.639Z,1002.28
2017-08-20T09:20:02.820Z,1002.3
2017-08-20T09:21:13.183Z,1002.29
2017-08-20T09:22:23.543Z,1002.27
2017-08-20T09:23:33.904Z,1002.27
2017-08-20T09:24:44.390Z,1002.27
2017-08-20T09:25:54.889Z,1002.24
2017-08-20T09:27:06.707Z,1002.32
2017-08-20T09:28:17.120Z,1002.31
2017-08-20T09:29:27.602Z,1002.26
2017-08-20T09:30:40.751Z,1002.23
2017-08-20T09:31:51.097Z,1002.25
2017-08-20T09:33:01.451Z,1002.25
2017-08-20T09:34:11.817Z,1002.22
2017-08-20T09:35:22.302Z,1002.25
2017-08-20T09:36:32.835Z,1002.26
2017-08-20T09:37:43.184Z,1002.23
2017-08-20T09:38:53.534Z,1002.27
2017-08-20T09:40:03.907Z,1002.25
2017-08-20T09:41:13.646Z,1002.24
2017-08-20T09:42:24.673Z,1002.19
2017-08-20T09:43:35.018Z,1002.24
2017-08-20T09:44:45.471Z,1002.23
2017-08-20T09:45:55.842Z,1002.26
2017-08-20T09:47:06.544Z,1002.28
2017-08-20T09:48:16.957Z,1002.26
2017-08-20T09:49:28.003Z,1002.2
2017-08-20T09:50:40.050Z,1002.22
2017-08-20T09:51:50.422Z,1002.26
2017-08-20T09:53:00.794Z,1002.26
2017-08-20T09:54:11.215Z,1002.24
2017-08-20T09:55:21.589Z,1002.22
2017-08-20T09:56:31.951Z,1002.17
2017-08-20T09:57:41.994Z,1002.19
2017-08-20T09:58:52.370Z,1002.13
2017-08-20T10:00:02.842Z,1002.17
2017-08-20T10:01:13.200Z,1002.19
2017-08-20T10:02:23.250Z,1002.13
2017-08-20T10:03:33.654Z,1002.17
2017-08-20T10:04:44.028Z,1002.18
2017-08-20T10:05:54.436Z,1002.2
2017-08-20T10:07:04.487Z,1002.12
2017-08-20T10:08:14.987Z,1002.13
2017-08-20T10:09:27.163Z,1002.12
2017-08-20T10:10:37.596Z,1002.16
2017-08-20T10:11:48.061Z,1002.14
2017-08-20T10:12:58.417Z,1002.09
2017-08-20T10:14:08.780Z,1002.14
2017-08-20T10:15:19.136Z,1002.04
2017-08-20T10:16:31.952Z,1002.05
2017-08-20T10:17:44.720Z,1002.06
2017-08-20T10:18:54.886Z,1002.03
2017-08-20T10:20:05.333Z,1002.11
2017-08-20T10:21:15.395Z,1002.03
2017-08-20T10:22:25.111Z,1002.02
2017-08-20T10:23:35.530Z,1002.07
2017-08-20T10:24:46.009Z,1002.02
2017-08-20T10:25:56.348Z,1002.09
2017-08-20T10:27:06.738Z,1001.99
2017-08-20T10:28:16.769Z,1001.98
2017-08-20T10:29:28.869Z,1001.98
2017-08-20T10:30:39.296Z,1001.97
2017-08-20T10:31:50.989Z,1002.04
2017-08-20T10:33:03.092Z,1002.05
2017-08-20T10:34:13.147Z,1002.05
2017-08-20T10:35:23.557Z,1002.01
2017-08-20T10:36:33.968Z,1002.01
2017-08-20T10:37:44.413Z,1002.11
2017-08-20T10:38:54.797Z,1002.01
2017-08-20T10:40:05.182Z,1002
2017-08-20T10:41:15.287Z,1002.02
2017-08-20T10:42:25.667Z,1001.97
2017-08-20T10:43:36.048Z,1001.96
2017-08-20T10:44:46.506Z,1001.94
2017-08-20T10:45:56.936Z,1001.98
2017-08-20T10:47:07.091Z,1001.97
2017-08-20T10:48:17.208Z,1002
2017-08-20T10:49:27.564Z,1001.92
2017-08-20T10:50:37.943Z,1001.96
2017-08-20T10:51:48.305Z,1001.9
2017-08-20T10:52:58.835Z,1001.94
2017-08-20T10:54:09.035Z,1001.93
2017-08-20T10:55:23.551Z,1001.97
2017-08-20T10:56:33.952Z,1001.98
2017-08-20T10:57:44.120Z,1002
2017-08-20T10:58:54.545Z,1002.02
2017-08-20T11:00:04.893Z,1001.97
2017-08-20T11:01:15.233Z,1002.07
2017-08-20T11:02:25.600Z,1001.89
2017-08-20T11:03:35.952Z,1001.9
2017-08-20T11:04:45.840Z,1002
2017-08-20T11:05:57.185Z,1002.07
2017-08-20T11:07:07.576Z,1002.03
2017-08-20T11:08:18.102Z,1001.88
2017-08-20T11:09:28.476Z,1001.95
2017-08-20T11:10:43.057Z,1001.94
2017-08-20T11:11:54.257Z,1001.94
2017-08-20T11:13:04.826Z,1001.92
2017-08-20T11:14:18.572Z,1001.86
2017-08-20T11:15:32.657Z,1001.85
2017-08-20T11:16:43.057Z,1001.84
2017-08-20T11:17:52.810Z,1001.82
2017-08-20T11:19:03.163Z,1001.8
2017-08-20T11:20:13.512Z,1001.94
2017-08-20T11:21:23.928Z,1001.92
2017-08-20T11:22:34.290Z,1001.91
2017-08-20T11:23:44.336Z,1001.91
2017-08-20T11:24:54.415Z,1001.82
2017-08-20T11:26:04.464Z,1001.84
2017-08-20T11:27:14.249Z,1001.75
2017-08-20T11:28:23.672Z,1001.82
2017-08-20T11:29:34.038Z,1001.68
2017-08-20T11:30:45.953Z,1001.8
2017-08-20T11:31:56.743Z,1001.75
2017-08-20T11:33:07.149Z,1001.77
2017-08-20T11:35:43.205Z,1001.72
2017-08-20T11:36:57.318Z,1001.87
2017-08-20T11:38:09.908Z,1001.74
2017-08-20T11:39:21.421Z,1001.82
2017-08-20T11:40:31.485Z,1001.87
2017-08-20T11:41:41.712Z,1001.83
2017-08-20T11:42:52.104Z,1001.76
2017-08-20T11:44:02.514Z,1001.81
2017-08-20T11:45:13.379Z,1001.76
2017-08-20T11:46:23.768Z,1001.76
2017-08-20T11:47:34.171Z,1001.77
2017-08-20T11:48:44.599Z,1001.7
2017-08-20T11:49:55.095Z,1001.64
2017-08-20T11:51:05.183Z,1001.72
2017-08-20T11:52:15.584Z,1001.68
2017-08-20T11:53:26.202Z,1001.73
2017-08-20T11:54:35.984Z,1001.65
2017-08-20T11:55:46.566Z,1001.75
2017-08-20T11:56:57.103Z,1001.72
2017-08-20T11:58:07.615Z,1001.72
2017-08-20T11:59:18.095Z,1001.83
2017-08-20T12:00:30.396Z,1001.79
2017-08-20T12:01:44.950Z,1001.7
2017-08-20T12:02:55.555Z,1001.75
2017-08-20T12:04:05.962Z,1001.75
2017-08-20T12:05:16.642Z,1001.74
2017-08-20T12:06:27.526Z,1001.71
2017-08-20T12:07:41.672Z,1001.72
2017-08-20T12:08:52.108Z,1001.75
2017-08-20T12:10:02.500Z,1001.8
2017-08-20T12:11:12.725Z,1001.73
2017-08-20T12:12:23.122Z,1001.68
2017-08-20T12:13:33.331Z,1001.73
2017-08-20T12:14:43.475Z,1001.67
2017-08-20T12:15:53.982Z,1001.66
2017-08-20T12:17:04.676Z,1001.8
2017-08-20T12:18:15.173Z,1001.62
2017-08-20T12:19:25.820Z,1001.72
2017-08-20T12:20:35.895Z,1001.73
2017-08-20T12:21:46.039Z,1001.77
2017-08-20T12:22:56.098Z,1001.72
2017-08-20T12:24:06.498Z,1001.67
2017-08-20T12:25:17.033Z,1001.73
2017-08-20T12:26:27.404Z,1001.73
2017-08-20T12:27:37.906Z,1001.75
2017-08-20T12:28:48.419Z,1001.82
2017-08-20T12:29:58.472Z,1001.71
2017-08-20T12:31:08.934Z,1001.75
2017-08-20T12:32:19.526Z,1001.74
2017-08-20T12:33:29.993Z,1001.76
2017-08-20T12:34:40.109Z,1001.72
2017-08-20T12:35:50.273Z,1001.7
2017-08-20T12:37:00.692Z,1001.78
2017-08-20T12:38:11.142Z,1001.75
2017-08-20T12:39:22.153Z,1001.73
2017-08-20T12:40:32.563Z,1001.71
2017-08-20T12:41:42.442Z,1001.76
2017-08-20T12:42:53.247Z,1001.72
2017-08-20T12:44:03.829Z,1001.81
2017-08-20T12:45:14.528Z,1001.83
2017-08-20T12:46:25.888Z,1001.79
2017-08-20T12:47:40.181Z,1001.72
2017-08-20T12:48:50.587Z,1001.72
2017-08-20T12:50:01.135Z,1001.71
2017-08-20T12:51:11.504Z,1001.73
2017-08-20T12:52:21.559Z,1001.76
2017-08-20T12:53:31.965Z,1001.69
2017-08-20T12:54:42.385Z,1001.67
2017-08-20T12:55:52.604Z,1001.61
2017-08-20T12:57:02.982Z,1001.64
2017-08-20T12:58:13.365Z,1001.7
2017-08-20T12:59:24.159Z,1001.71
2017-08-20T13:00:49.008Z,1001.72
2017-08-20T13:01:59.404Z,1001.72
2017-08-20T13:03:09.443Z,1001.71
2017-08-20T13:04:19.534Z,1001.82
2017-08-20T13:05:30.008Z,1001.78
2017-08-20T13:06:40.384Z,1001.79
2017-08-20T13:07:50.753Z,1001.77
2017-08-20T13:09:01.134Z,1001.79
2017-08-20T13:10:11.764Z,1001.69
2017-08-20T13:11:22.350Z,1001.76
2017-08-20T13:12:32.404Z,1001.8
2017-08-20T13:13:42.767Z,1001.86
2017-08-20T13:14:52.823Z,1001.86
2017-08-20T13:16:03.198Z,1001.81
2017-08-20T13:17:13.664Z,1001.77
2017-08-20T13:18:24.060Z,1001.75
2017-08-20T13:19:34.133Z,1001.75
2017-08-20T13:20:44.472Z,1001.76
2017-08-20T13:21:54.831Z,1001.76
2017-08-20T13:23:05.276Z,1001.77
2017-08-20T13:24:14.996Z,1001.74
2017-08-20T13:25:27.676Z,1001.69
2017-08-20T13:26:38.046Z,1001.68
2017-08-20T13:27:47.458Z,1001.7
2017-08-20T13:28:57.875Z,1001.76
2017-08-20T13:30:08.217Z,1001.73
2017-08-20T13:31:18.285Z,1001.73
2017-08-20T13:32:28.350Z,1001.64
2017-08-20T13:33:38.715Z,1001.67
2017-08-20T13:34:49.190Z,1001.73
2017-08-20T13:35:59.234Z,1001.62
2017-08-20T13:37:09.638Z,1001.66
2017-08-20T13:38:19.984Z,1001.68
2017-08-20T13:39:30.373Z,1001.72
2017-08-20T13:40:40.834Z,1001.66
2017-08-20T13:41:51.238Z,1001.61
2017-08-20T13:43:01.299Z,1001.68
2017-08-20T13:44:11.663Z,1001.63
2017-08-20T13:45:21.710Z,1001.68
2017-08-20T13:46:34.057Z,1001.62
2017-08-20T13:47:44.422Z,1001.59
2017-08-20T13:48:54.859Z,1001.6
2017-08-20T13:50:05.237Z,1001.6
2017-08-20T13:51:15.676Z,1001.63
2017-08-20T13:52:25.797Z,1001.54
2017-08-20T13:53:36.174Z,1001.57
2017-08-20T13:54:46.580Z,1001.58
2017-08-20T13:55:57.331Z,1001.6
2017-08-20T13:57:07.688Z,1001.7
2017-08-20T13:58:18.136Z,1001.73
2017-08-20T13:59:28.186Z,1001.65
2017-08-20T14:00:38.235Z,1001.71
2017-08-20T14:01:48.594Z,1001.65
2017-08-20T14:02:58.648Z,1001.69
2017-08-20T14:04:12.245Z,1001.68
2017-08-20T14:05:22.631Z,1001.64
2017-08-20T14:06:32.730Z,1001.64
2017-08-20T14:07:43.112Z,1001.63
2017-08-20T14:08:53.508Z,1001.65
2017-08-20T14:10:03.597Z,1001.63
2017-08-20T14:11:13.705Z,1001.64
2017-08-20T14:12:23.755Z,1001.61
2017-08-20T14:13:34.117Z,1001.61
2017-08-20T14:14:44.479Z,1001.62
2017-08-20T14:15:54.966Z,1001.64
2017-08-20T14:17:05.358Z,1001.69
2017-08-20T14:18:15.709Z,1001.67
2017-08-20T14:19:26.158Z,1001.65
2017-08-20T14:20:36.209Z,1001.69
2017-08-20T14:21:47.747Z,1001.74
2017-08-20T14:22:57.780Z,1001.65
2017-08-20T14:24:08.154Z,1001.67
2017-08-20T14:25:18.185Z,1001.7
2017-08-20T14:26:28.558Z,1001.74
2017-08-20T14:27:39.929Z,1001.72
2017-08-20T14:28:50.319Z,1001.74
2017-08-20T14:30:00.686Z,1001.75
2017-08-20T14:31:10.751Z,1001.73
2017-08-20T14:32:20.820Z,1001.71
2017-08-20T14:33:31.249Z,1001.76
2017-08-20T14:34:41.299Z,1001.83
2017-08-20T14:35:51.367Z,1001.77
2017-08-20T14:37:01.734Z,1001.75
2017-08-20T14:38:12.098Z,1001.74
2017-08-20T14:39:22.511Z,1001.74
2017-08-20T14:40:32.566Z,1001.77
2017-08-20T14:41:42.966Z,1001.84
2017-08-20T14:42:53.337Z,1001.89
2017-08-20T14:44:03.697Z,1001.93
2017-08-20T14:45:14.145Z,1001.9
2017-08-20T14:46:24.527Z,1001.94
2017-08-20T14:47:34.920Z,1001.9
2017-08-20T14:48:47.813Z,1001.9